Lodeynoye Pole, Russia
Current Conditions -  °F | °C
As of 12:00 AM on Thursday 27 Nov 2014 (Local Time) from ULPB Reporting Station
Light Snow Light Snow  
Wind Chill: 26°   Ceiling: NA
Heat Index: 32°   Visibility: 6mi
Dew Point: 32°   Wind: 7mph
Humidity: 100%   Direction: 220°SW
Pressure: 30.3"   Gusts: NA
Location:  60.73°N, 33.56°E
Report Text: ULPB 262100Z AUTO 22003MPS 9000 -SG ////// 00/00 Q1026
Loading
Personal Weather Stations






























Interactive Weather Map New forecast layout! Learn more

10-Day Weather Forecast

Advertisements
Track Severe Weather on mobile